SARF/FMA METAR and TAF weather

Enter ICAO airport designator
Station Type Date Time Source
SARF METAR 2019/10/23 21:00 UTC NOAA

SARF 232100Z 18008KT CAVOK 27/13 Q1012


Station Type Date Time Source
SARF Decoded METAR 2019/10/23 21:00 UTC NOAA

Formosa Aerodrome, Argentina (SARF) 26-12S 058-14W 60M
Oct 23, 2019 - 05:00 PM EDT / 2019.10.23 2100 UTC
Wind: from the S (180 degrees) at 9 MPH (8 KT):0
Visibility: greater than 7 mile(s):0
Temperature: 80 F (27 C)
Dew Point: 55 F (13 C)
Relative Humidity: 41%
Pressure (altimeter): 29.88 in. Hg (1012 hPa)
ob: SARF 232100Z 18008KT CAVOK 27/13 Q1012
cycle: 21

Station Type Date Time Source
SARF TAF 2019/10/23 18:21 UTC NOAA

TAF SARF 231700Z 2318/2418 16005KT CAVOK TX29/2318Z TN15/2410Z

Example: see airport list